Time;durP1;ratioP1;P1;durP2;ratioP2;P2;SDS_P1;SDS_P2;PMS_P1;PMS_P2;Temp;Humidity;BMP_temperature;BMP_pressure;BME280_temperature;BME280_humidity;BME280_pressure;Samples;Min_cycle;Max_cycle;Signal;HPM_P1;HPM_P2
2022/01/26 00:00:01;;;;;;;78.40;45.27;;;3.70;99.90;;;;;;5092266;28;20492;-69
2022/01/26 00:07:59;;;;;;;77.17;43.33;;;3.60;99.90;;;;;;5096408;28;20457;-69
2022/01/26 00:10:26;;;;;;;75.53;43.57;;;3.60;99.90;;;;;;5098001;28;20816;-69
2022/01/26 00:12:53;;;;;;;76.43;41.97;;;3.60;99.90;;;;;;5096332;28;20461;-69
2022/01/26 00:15:20;;;;;;;73.23;43.90;;;3.60;99.90;;;;;;5102051;28;20500;-69
2022/01/26 00:17:49;;;;;;;86.57;44.73;;;3.60;99.90;;;;;;5095909;28;20450;-68
2022/01/26 00:20:22;;;;;;;88.37;47.30;;;3.50;99.90;;;;;;5098990;28;20526;-68
2022/01/26 00:23:03;;;;;;;79.63;45.33;;;3.50;99.90;;;;;;5100069;28;20465;-69
2022/01/26 00:39:18;;;;;;;103.40;48.90;;;3.40;99.90;;;;;;5103250;28;20451;-69
2022/01/26 00:41:47;;;;;;;93.67;47.60;;;3.40;99.90;;;;;;5105002;28;20460;-69
2022/01/26 00:44:15;;;;;;;101.93;52.10;;;3.50;99.90;;;;;;5104100;28;20535;-69
2022/01/26 00:46:48;;;;;;;99.77;52.53;;;3.40;99.90;;;;;;5105425;28;21031;-69
2022/01/26 00:49:16;;;;;;;103.97;50.80;;;3.40;99.90;;;;;;5103991;28;20458;-69
2022/01/26 00:51:43;;;;;;;102.80;53.33;;;3.40;99.90;;;;;;5092535;28;20449;-69
2022/01/26 00:54:10;;;;;;;95.20;51.70;;;3.40;99.90;;;;;;5103310;28;21229;-70
2022/01/26 00:56:38;;;;;;;105.43;50.53;;;3.50;99.90;;;;;;5099978;28;20481;-69
2022/01/26 00:59:06;;;;;;;97.47;48.30;;;3.50;99.90;;;;;;5099179;28;20476;-69
2022/01/26 01:01:33;;;;;;;96.03;48.83;;;3.50;99.90;;;;;;5103117;28;20467;-69
2022/01/26 01:04:01;;;;;;;96.87;50.43;;;3.50;99.90;;;;;;5101294;28;20469;-69
2022/01/26 01:06:32;;;;;;;83.47;45.73;;;3.50;99.90;;;;;;5100174;28;20535;-69
2022/01/26 01:09:00;;;;;;;88.47;47.70;;;3.40;99.90;;;;;;5096671;28;20466;-69
2022/01/26 01:11:28;;;;;;;88.70;47.00;;;3.40;99.90;;;;;;5103218;28;20955;-69
2022/01/26 01:13:56;;;;;;;98.30;51.23;;;3.40;99.90;;;;;;5101377;28;21005;-69
2022/01/26 01:16:25;;;;;;;98.70;49.10;;;3.30;99.90;;;;;;5103781;28;20460;-69
2022/01/26 01:19:00;;;;;;;89.83;48.10;;;3.30;99.90;;;;;;5093833;28;20955;-69
2022/01/26 01:22:02;;;;;;;109.47;52.90;;;3.30;99.90;;;;;;5096312;28;20655;-69
2022/01/26 01:30:11;;;;;;;113.50;52.33;;;3.30;99.90;;;;;;5065292;28;20457;-69
2022/01/26 01:32:51;;;;;;;96.50;49.47;;;3.30;99.90;;;;;;5100855;28;20462;-69
2022/01/26 01:35:19;;;;;;;90.87;49.53;;;3.20;99.90;;;;;;5099764;28;21030;-69
2022/01/26 01:37:46;;;;;;;99.03;48.00;;;3.30;99.90;;;;;;5096234;28;20450;-69
2022/01/26 01:40:13;;;;;;;95.07;48.53;;;3.30;99.90;;;;;;5099993;28;20516;-69
2022/01/26 01:42:40;;;;;;;100.67;49.30;;;3.40;99.90;;;;;;5097780;28;20458;-69
2022/01/26 01:45:08;;;;;;;98.23;51.73;;;3.20;99.90;;;;;;5102883;28;20470;-69
2022/01/26 01:47:35;;;;;;;97.10;51.00;;;3.30;99.90;;;;;;5102528;28;20457;-69
2022/01/26 01:50:09;;;;;;;105.27;51.63;;;3.30;99.90;;;;;;5096665;28;20842;-69
2022/01/26 01:52:36;;;;;;;95.17;47.77;;;3.30;99.90;;;;;;5096624;28;20469;-69
2022/01/26 01:55:04;;;;;;;92.70;48.17;;;3.20;99.90;;;;;;5103521;28;20489;-69
2022/01/26 01:57:32;;;;;;;100.23;48.60;;;3.20;99.90;;;;;;5102452;28;20453;-69
2022/01/26 01:59:58;;;;;;;95.67;50.40;;;3.20;99.90;;;;;;5108238;28;20461;-69
2022/01/26 02:02:25;;;;;;;101.30;51.23;;;3.10;99.90;;;;;;5106753;28;20456;-69
2022/01/26 02:04:53;;;;;;;90.90;47.30;;;3.20;99.90;;;;;;5099259;28;20572;-69
2022/01/26 02:07:21;;;;;;;92.10;46.70;;;3.30;99.90;;;;;;5097768;28;20461;-69
2022/01/26 02:09:47;;;;;;;89.83;47.40;;;3.30;99.90;;;;;;5093658;28;20473;-69
2022/01/26 02:12:18;;;;;;;98.13;48.93;;;3.30;99.90;;;;;;5096613;28;20465;-69
2022/01/26 02:14:50;;;;;;;100.57;48.97;;;3.30;99.90;;;;;;5103034;28;20592;-69
2022/01/26 02:17:30;;;;;;;96.60;52.87;;;3.30;99.90;;;;;;5096382;28;20973;-69
2022/01/26 02:20:30;;;;;;;97.00;49.20;;;3.30;99.90;;;;;;5104039;28;20529;-69
2022/01/26 02:51:03;;;;;;;93.47;49.07;;;3.40;99.90;;;;;;5098306;28;21022;-69
2022/01/26 02:53:48;;;;;;;90.80;49.50;;;3.30;99.90;;;;;;5095620;28;20492;-69
2022/01/26 02:56:23;;;;;;;92.37;47.97;;;3.30;99.90;;;;;;5099858;28;20559;-69
2022/01/26 03:01:52;;;;;;;89.23;49.50;;;3.30;99.90;;;;;;5093605;28;20515;-69
2022/01/26 03:04:26;;;;;;;91.70;48.10;;;3.20;99.90;;;;;;5099679;28;20457;-69
2022/01/26 03:06:59;;;;;;;98.53;50.03;;;3.30;99.90;;;;;;5100889;28;20458;-69
2022/01/26 03:09:30;;;;;;;112.33;53.77;;;3.30;99.90;;;;;;5099000;28;20465;-69
2022/01/26 03:12:00;;;;;;;103.27;51.90;;;3.30;99.90;;;;;;5101606;28;20547;-69
2022/01/26 03:14:36;;;;;;;108.47;52.53;;;3.30;99.90;;;;;;5103253;28;20481;-69
2022/01/26 03:17:13;;;;;;;107.80;51.70;;;3.30;99.90;;;;;;5102513;28;20455;-69
2022/01/26 03:19:44;;;;;;;115.33;52.43;;;3.30;99.90;;;;;;5098133;28;20499;-68
2022/01/26 03:30:37;;;;;;;105.20;52.93;;;3.20;99.90;;;;;;5096708;28;21228;-69
2022/01/26 03:33:12;;;;;;;96.67;48.90;;;3.20;99.90;;;;;;5099689;28;20464;-69
2022/01/26 03:35:44;;;;;;;106.93;52.93;;;3.20;99.90;;;;;;5095922;28;20510;-69
2022/01/26 03:38:18;;;;;;;101.10;48.80;;;3.00;99.90;;;;;;5097165;28;20859;-68
2022/01/26 03:40:46;;;;;;;107.73;49.23;;;3.00;99.90;;;;;;5099028;28;20460;-69
2022/01/26 03:43:14;;;;;;;96.50;49.73;;;3.00;99.90;;;;;;5093295;28;20494;-69
2022/01/26 03:45:41;;;;;;;103.73;52.87;;;3.00;99.90;;;;;;5101258;28;20460;-69
2022/01/26 03:48:08;;;;;;;102.40;51.20;;;3.00;99.90;;;;;;5100333;28;20461;-69
2022/01/26 03:50:35;;;;;;;102.47;50.37;;;2.90;99.90;;;;;;5102310;28;20466;-69
2022/01/26 03:53:02;;;;;;;111.03;51.30;;;2.80;99.90;;;;;;5100188;28;20465;-69
2022/01/26 03:55:29;;;;;;;112.23;49.77;;;2.90;99.90;;;;;;5104222;28;20492;-69
2022/01/26 03:57:55;;;;;;;112.47;52.67;;;2.90;99.90;;;;;;5101826;28;20457;-69
2022/01/26 04:00:24;;;;;;;118.13;52.87;;;3.00;99.90;;;;;;5098047;28;20464;-69
2022/01/26 04:02:51;;;;;;;102.77;50.33;;;3.00;99.90;;;;;;5103667;28;20457;-69
2022/01/26 04:05:17;;;;;;;107.50;49.53;;;2.90;99.90;;;;;;5107496;28;20492;-69
2022/01/26 04:07:45;;;;;;;97.80;50.33;;;3.00;99.90;;;;;;5105597;28;20471;-69
2022/01/26 04:10:21;;;;;;;101.17;50.13;;;3.00;99.90;;;;;;5102593;28;20453;-69
2022/01/26 04:12:48;;;;;;;95.77;46.80;;;3.00;99.90;;;;;;5099698;28;20483;-69
2022/01/26 04:15:24;;;;;;;98.43;52.13;;;2.90;99.90;;;;;;5096733;28;20481;-69
2022/01/26 04:17:52;;;;;;;101.70;49.00;;;2.90;99.90;;;;;;5106254;28;21239;-69
2022/01/26 04:20:22;;;;;;;115.50;50.47;;;2.90;99.90;;;;;;5100173;28;20462;-69
2022/01/26 04:22:56;;;;;;;108.87;50.13;;;2.90;99.90;;;;;;5103532;28;20449;-69
2022/01/26 04:25:25;;;;;;;105.80;49.33;;;2.90;99.90;;;;;;5110809;27;20562;-69
2022/01/26 04:27:55;;;;;;;92.27;44.80;;;2.90;99.90;;;;;;5099140;28;20971;-69
2022/01/26 04:30:22;;;;;;;102.77;48.27;;;2.80;99.90;;;;;;5100389;28;20515;-69
2022/01/26 04:32:49;;;;;;;103.70;49.03;;;2.80;99.90;;;;;;5100036;28;21034;-69
2022/01/26 04:35:17;;;;;;;100.03;48.43;;;2.80;99.90;;;;;;5102716;28;20489;-69
2022/01/26 04:38:07;;;;;;;99.47;46.97;;;2.60;99.90;;;;;;5104670;28;20463;-70
2022/01/26 04:40:40;;;;;;;118.90;52.10;;;2.60;99.90;;;;;;5105219;28;20932;-70
2022/01/26 04:43:17;;;;;;;97.10;46.83;;;2.50;99.90;;;;;;5100997;28;20465;-70
2022/01/26 04:45:44;;;;;;;98.80;46.73;;;2.50;99.90;;;;;;5104393;28;20452;-70
2022/01/26 04:48:11;;;;;;;111.47;48.60;;;2.50;99.90;;;;;;5105557;28;21037;-70
2022/01/26 04:50:39;;;;;;;114.33;52.33;;;2.50;99.90;;;;;;5103873;28;20466;-70
2022/01/26 04:53:06;;;;;;;98.27;46.77;;;2.40;99.90;;;;;;5103236;28;20466;-70
2022/01/26 04:55:33;;;;;;;76.50;40.33;;;2.40;99.90;;;;;;5100699;28;20485;-72
2022/01/26 04:58:00;;;;;;;105.80;47.83;;;2.50;99.90;;;;;;5100780;28;20504;-70
2022/01/26 05:00:27;;;;;;;101.63;46.60;;;2.40;99.90;;;;;;5079913;28;20839;-71
2022/01/26 05:02:54;;;;;;;86.97;43.40;;;2.40;99.90;;;;;;5070730;28;20476;-71
2022/01/26 05:05:21;;;;;;;76.57;40.67;;;2.50;99.90;;;;;;5071280;28;20495;-70
2022/01/26 05:07:49;;;;;;;109.43;51.20;;;2.50;99.90;;;;;;5071414;28;20469;-70
2022/01/26 05:10:16;;;;;;;120.60;50.20;;;2.40;99.90;;;;;;5073119;28;20488;-71
2022/01/26 05:12:43;;;;;;;107.80;50.60;;;2.40;99.90;;;;;;5070890;28;21062;-70
2022/01/26 05:15:10;;;;;;;110.70;49.33;;;2.50;99.90;;;;;;5073076;28;21220;-71
2022/01/26 05:17:39;;;;;;;120.07;53.77;;;2.50;99.90;;;;;;5072495;28;20767;-70
2022/01/26 05:20:08;;;;;;;96.90;46.33;;;2.40;99.90;;;;;;5071723;28;20486;-70
2022/01/26 05:22:35;;;;;;;101.17;47.27;;;2.30;99.90;;;;;;5071117;28;20471;-71
2022/01/26 05:25:04;;;;;;;108.63;47.93;;;2.40;99.90;;;;;;5072404;28;20465;-70
2022/01/26 05:27:31;;;;;;;105.23;49.10;;;2.40;99.90;;;;;;5072274;28;20473;-71
2022/01/26 05:29:58;;;;;;;107.73;50.77;;;2.40;99.90;;;;;;5071371;28;20458;-70
2022/01/26 05:32:26;;;;;;;119.30;49.40;;;2.40;99.90;;;;;;5072093;28;20468;-70
2022/01/26 05:34:53;;;;;;;112.57;48.70;;;2.50;99.90;;;;;;5073671;28;20560;-71
2022/01/26 05:37:20;;;;;;;112.00;48.40;;;2.60;99.90;;;;;;5071894;28;21021;-71
2022/01/26 05:39:46;;;;;;;126.43;50.43;;;2.60;99.90;;;;;;5070446;28;20477;-71
2022/01/26 05:42:15;;;;;;;112.33;50.20;;;2.70;99.90;;;;;;5071085;28;20472;-70
2022/01/26 05:44:43;;;;;;;118.60;50.87;;;2.60;99.90;;;;;;5072526;28;20490;-70
2022/01/26 05:47:14;;;;;;;124.70;52.80;;;2.70;99.90;;;;;;5070550;28;21129;-70
2022/01/26 05:49:41;;;;;;;109.30;48.43;;;2.70;99.90;;;;;;5072743;28;20469;-70
2022/01/26 05:52:08;;;;;;;128.27;50.10;;;2.70;99.90;;;;;;5070744;28;20465;-70
2022/01/26 05:54:35;;;;;;;116.80;49.27;;;2.70;99.90;;;;;;5071919;28;20462;-71
2022/01/26 05:57:02;;;;;;;128.33;53.40;;;2.60;99.90;;;;;;5070413;28;21753;-71
2022/01/26 05:59:32;;;;;;;125.13;53.47;;;2.70;99.90;;;;;;5070227;28;20446;-70
2022/01/26 06:01:59;;;;;;;110.60;50.87;;;2.70;99.90;;;;;;5072024;28;20542;-70
2022/01/26 06:04:27;;;;;;;121.17;53.57;;;2.70;99.90;;;;;;5072155;28;20619;-70
2022/01/26 06:06:55;;;;;;;126.83;50.80;;;2.70;99.90;;;;;;5072028;28;21182;-70
2022/01/26 06:09:21;;;;;;;124.67;53.60;;;2.80;99.90;;;;;;5072881;28;20461;-70
2022/01/26 06:11:48;;;;;;;128.10;54.10;;;2.80;99.90;;;;;;5097359;28;20580;-70
2022/01/26 06:14:15;;;;;;;128.83;54.07;;;2.90;99.90;;;;;;5102112;28;20885;-70
2022/01/26 06:16:44;;;;;;;144.30;55.03;;;2.90;99.90;;;;;;5077427;28;20855;-70
2022/01/26 06:19:11;;;;;;;128.57;51.70;;;2.90;99.90;;;;;;5071295;28;20449;-71
2022/01/26 06:21:38;;;;;;;128.23;52.10;;;2.80;99.90;;;;;;5071273;28;20923;-70
2022/01/26 06:24:06;;;;;;;123.87;53.23;;;2.90;99.90;;;;;;5071227;28;20461;-70
2022/01/26 06:26:33;;;;;;;132.83;56.60;;;2.80;99.90;;;;;;5071748;27;20504;-70
2022/01/26 06:28:59;;;;;;;115.47;51.17;;;2.70;99.90;;;;;;5068368;28;21066;-70
2022/01/26 06:31:28;;;;;;;132.30;53.90;;;2.70;99.90;;;;;;5071447;28;20469;-70
2022/01/26 06:33:57;;;;;;;130.27;52.83;;;2.70;99.90;;;;;;5071286;28;20530;-70
2022/01/26 06:36:24;;;;;;;114.53;49.57;;;2.70;99.90;;;;;;5070175;28;20490;-70
2022/01/26 06:38:51;;;;;;;137.93;53.50;;;2.80;99.90;;;;;;5069406;28;20450;-70
2022/01/26 06:41:23;;;;;;;130.87;53.83;;;2.70;99.90;;;;;;5073981;28;20473;-70
2022/01/26 06:43:56;;;;;;;125.73;55.63;;;2.60;99.90;;;;;;5097454;28;20538;-70
2022/01/26 06:46:28;;;;;;;121.33;52.30;;;2.70;99.90;;;;;;5093363;28;20453;-70
2022/01/26 06:51:40;;;;;;;124.37;52.73;;;2.80;99.90;;;;;;5074906;28;20464;-70
2022/01/26 06:54:07;;;;;;;123.20;54.40;;;2.80;99.90;;;;;;5068207;28;21072;-71
2022/01/26 06:56:34;;;;;;;129.13;53.93;;;2.80;99.90;;;;;;5069178;28;21113;-70
2022/01/26 06:59:00;;;;;;;132.30;54.20;;;2.80;99.90;;;;;;5070254;28;21043;-70
2022/01/26 07:01:27;;;;;;;114.80;51.47;;;2.70;99.90;;;;;;5068098;28;20456;-71
2022/01/26 07:03:56;;;;;;;132.17;54.40;;;2.70;99.90;;;;;;5069002;28;21292;-70
2022/01/26 07:06:23;;;;;;;137.13;57.33;;;2.70;99.90;;;;;;5068340;28;20485;-70
2022/01/26 07:08:50;;;;;;;142.33;58.20;;;2.70;99.90;;;;;;5069047;28;21165;-70
2022/01/26 07:11:17;;;;;;;149.80;55.60;;;2.70;99.90;;;;;;5068508;28;20837;-71
2022/01/26 07:13:45;;;;;;;141.90;58.47;;;2.70;99.90;;;;;;5067615;28;21175;-71
2022/01/26 07:21:48;;;;;;;123.53;52.73;;;2.80;99.90;;;;;;5051267;28;20474;-71
2022/01/26 07:24:15;;;;;;;132.47;54.53;;;2.70;99.90;;;;;;5068638;28;20453;-72
2022/01/26 07:26:43;;;;;;;126.73;52.87;;;2.70;99.90;;;;;;5068273;28;20462;-70
2022/01/26 07:29:12;;;;;;;144.80;55.93;;;2.70;99.90;;;;;;5067704;28;20472;-70
2022/01/26 07:31:42;;;;;;;137.30;55.57;;;2.70;99.90;;;;;;5066570;28;20516;-71
2022/01/26 07:34:12;;;;;;;129.10;54.03;;;2.80;99.90;;;;;;5067677;28;22542;-71
2022/01/26 07:36:38;;;;;;;122.53;56.10;;;2.80;99.90;;;;;;5067909;28;21078;-71
2022/01/26 07:39:09;;;;;;;122.57;54.97;;;2.80;99.90;;;;;;5068446;28;20465;-71
2022/01/26 07:41:36;;;;;;;127.67;56.30;;;2.80;99.90;;;;;;5067356;28;21555;-71
2022/01/26 07:44:05;;;;;;;128.13;55.67;;;2.90;99.90;;;;;;5079278;28;20533;-70
2022/01/26 07:46:32;;;;;;;116.53;54.27;;;3.00;99.90;;;;;;5093337;28;20466;-70
2022/01/26 07:48:59;;;;;;;124.23;53.70;;;3.00;99.90;;;;;;5096552;28;20466;-70
2022/01/26 07:51:27;;;;;;;115.93;51.37;;;3.00;99.90;;;;;;5077700;28;21669;-71
2022/01/26 07:53:54;;;;;;;121.50;53.90;;;3.10;99.90;;;;;;5083038;28;20461;-70
2022/01/26 07:56:21;;;;;;;117.93;51.43;;;2.70;99.90;;;;;;5095533;28;21069;-70
2022/01/26 07:58:49;;;;;;;123.57;50.93;;;2.80;99.90;;;;;;5087964;28;20468;-70
2022/01/26 08:01:15;;;;;;;129.90;51.43;;;2.90;99.90;;;;;;5082839;28;20495;-71
2022/01/26 08:03:42;;;;;;;122.50;49.80;;;3.00;99.90;;;;;;5065433;28;21346;-71
2022/01/26 08:06:15;;;;;;;125.07;53.00;;;3.00;99.90;;;;;;5064547;28;20924;-70
2022/01/26 08:08:43;;;;;;;115.80;52.57;;;3.00;99.90;;;;;;5064195;28;21022;-70
2022/01/26 08:11:11;;;;;;;141.70;55.20;;;3.00;99.90;;;;;;5061710;28;20461;-70
2022/01/26 08:13:38;;;;;;;137.07;57.43;;;3.10;99.90;;;;;;5063421;28;20852;-70
2022/01/26 08:16:05;;;;;;;137.03;56.30;;;3.10;99.90;;;;;;5063719;28;20469;-70
2022/01/26 08:18:32;;;;;;;134.40;52.77;;;3.00;99.90;;;;;;5063229;28;20461;-71
2022/01/26 08:21:04;;;;;;;141.23;55.20;;;3.00;99.90;;;;;;5064781;28;20580;-70
2022/01/26 08:23:32;;;;;;;140.60;56.97;;;2.90;99.90;;;;;;5094408;28;20470;-70
2022/01/26 08:26:01;;;;;;;128.00;55.17;;;3.00;99.90;;;;;;5071674;28;20615;-70
2022/01/26 08:28:33;;;;;;;129.10;53.47;;;2.90;99.90;;;;;;5064627;28;20465;-71
2022/01/26 08:31:00;;;;;;;129.97;55.87;;;3.00;99.90;;;;;;5065405;28;20463;-71
2022/01/26 08:33:27;;;;;;;154.70;58.33;;;3.10;99.90;;;;;;5064299;28;20462;-70
2022/01/26 08:35:54;;;;;;;143.83;53.90;;;3.10;99.90;;;;;;5064133;28;20466;-70
2022/01/26 08:38:21;;;;;;;135.97;54.87;;;3.00;99.90;;;;;;5064134;28;20643;-71
2022/01/26 08:40:49;;;;;;;138.40;56.50;;;3.10;99.90;;;;;;5064215;28;20835;-70
2022/01/26 08:43:17;;;;;;;137.73;56.87;;;3.10;99.90;;;;;;5063175;28;20461;-71
2022/01/26 08:45:44;;;;;;;127.47;54.50;;;3.00;99.90;;;;;;5063822;28;20500;-70
2022/01/26 08:48:12;;;;;;;136.50;51.07;;;3.00;99.90;;;;;;5068101;28;20457;-71
2022/01/26 08:50:39;;;;;;;142.57;56.47;;;3.10;99.90;;;;;;5068443;28;20637;-71
2022/01/26 08:53:06;;;;;;;142.43;54.97;;;2.80;99.90;;;;;;5067912;28;21233;-71
2022/01/26 08:55:33;;;;;;;111.67;46.10;;;2.80;99.90;;;;;;5068151;28;20465;-71
2022/01/26 08:58:00;;;;;;;150.27;54.93;;;2.80;99.90;;;;;;5067039;28;20592;-71
2022/01/26 09:00:28;;;;;;;141.37;50.10;;;2.80;99.90;;;;;;5068682;28;20458;-71
2022/01/26 09:02:57;;;;;;;136.70;53.40;;;2.80;99.90;;;;;;5067900;28;20838;-70
2022/01/26 09:05:24;;;;;;;148.33;54.43;;;2.80;99.90;;;;;;5067973;28;20481;-70
2022/01/26 09:07:55;;;;;;;151.20;54.17;;;2.80;99.90;;;;;;5068205;28;20769;-70
2022/01/26 09:10:25;;;;;;;143.00;52.00;;;2.90;99.90;;;;;;5095512;28;20464;-70
2022/01/26 09:12:53;;;;;;;147.33;53.43;;;2.90;99.90;;;;;;5092302;28;20462;-70
2022/01/26 09:15:26;;;;;;;148.57;54.20;;;3.00;99.90;;;;;;5069752;28;20501;-70
2022/01/26 09:17:55;;;;;;;148.73;55.27;;;3.00;99.90;;;;;;5071281;28;20485;-70
2022/01/26 09:20:22;;;;;;;153.43;54.00;;;3.00;99.90;;;;;;5093584;28;20829;-70
2022/01/26 09:22:49;;;;;;;112.87;46.30;;;3.00;99.90;;;;;;5104094;28;20496;-70
2022/01/26 09:25:16;;;;;;;155.30;56.30;;;3.00;99.90;;;;;;5095721;28;20564;-70
2022/01/26 09:27:42;;;;;;;152.10;52.87;;;2.90;99.90;;;;;;5082350;28;20685;-71
2022/01/26 09:30:11;;;;;;;133.53;52.87;;;2.90;99.90;;;;;;5070905;28;20464;-71
2022/01/26 09:32:38;;;;;;;148.60;56.63;;;3.00;99.90;;;;;;5071437;28;20465;-70
2022/01/26 09:35:09;;;;;;;144.50;53.50;;;2.90;99.90;;;;;;5070484;28;20805;-71
2022/01/26 09:37:36;;;;;;;145.30;53.60;;;3.00;99.90;;;;;;5070091;28;20580;-70
2022/01/26 09:40:05;;;;;;;142.03;54.10;;;3.00;99.90;;;;;;5070832;28;20469;-69
2022/01/26 09:42:34;;;;;;;137.53;52.60;;;3.00;99.90;;;;;;5070463;28;20505;-69
2022/01/26 09:45:01;;;;;;;146.40;52.57;;;2.90;99.90;;;;;;5070641;28;20578;-69
2022/01/26 09:47:29;;;;;;;136.80;53.60;;;2.80;99.90;;;;;;5070824;28;20544;-69
2022/01/26 09:49:56;;;;;;;152.77;57.40;;;2.90;99.90;;;;;;5070204;28;20475;-69
2022/01/26 09:52:31;;;;;;;149.17;53.73;;;2.90;99.90;;;;;;5070519;28;20470;-69
2022/01/26 09:55:14;;;;;;;136.13;48.90;;;3.10;99.90;;;;;;5070382;28;20980;-69
2022/01/26 09:57:43;;;;;;;150.33;54.73;;;3.00;99.90;;;;;;5067877;28;20489;-69
2022/01/26 10:00:11;;;;;;;137.43;51.50;;;3.00;99.90;;;;;;5070609;28;20579;-69
2022/01/26 10:02:39;;;;;;;135.63;51.10;;;2.90;99.90;;;;;;5069120;28;20978;-69
2022/01/26 10:05:10;;;;;;;138.43;52.53;;;2.90;99.90;;;;;;5069304;28;20481;-69
2022/01/26 10:07:59;;;;;;;133.93;51.00;;;2.90;99.90;;;;;;5069757;28;20472;-69
2022/01/26 10:15:26;;;;;;;138.60;53.77;;;3.00;99.90;;;;;;5068230;27;20843;-69
2022/01/26 10:16:48;;;;;;;140.63;52.97;;;3.00;99.90;;;;;;5068643;28;20468;-69
2022/01/26 10:19:19;;;;;;;129.23;48.23;;;3.00;99.90;;;;;;5070070;28;21043;-69
2022/01/26 10:21:46;;;;;;;127.73;48.90;;;3.10;99.90;;;;;;5069944;28;20457;-69
2022/01/26 10:24:16;;;;;;;127.93;48.27;;;3.00;99.90;;;;;;5069252;28;20499;-69
2022/01/26 10:26:48;;;;;;;117.97;47.37;;;3.00;99.90;;;;;;5069606;28;20519;-69
2022/01/26 10:29:16;;;;;;;95.10;33.60;;;2.90;99.90;;;;;;5063458;28;20946;-69
2022/01/26 10:31:43;;;;;;;130.70;49.10;;;2.80;99.90;;;;;;5063984;27;22447;-69
2022/01/26 10:34:12;;;;;;;112.33;42.90;;;2.90;99.90;;;;;;5064141;28;20461;-69
2022/01/26 10:36:41;;;;;;;112.47;40.77;;;2.80;99.90;;;;;;5064646;28;20562;-69
2022/01/26 10:39:09;;;;;;;133.33;48.13;;;2.80;99.90;;;;;;5065457;28;20455;-70
2022/01/26 10:41:39;;;;;;;135.57;49.33;;;2.70;99.90;;;;;;5064541;28;20492;-69
2022/01/26 10:44:07;;;;;;;132.53;47.30;;;2.60;99.90;;;;;;5064331;28;20963;-68
2022/01/26 10:46:38;;;;;;;102.43;38.93;;;2.70;99.90;;;;;;5066137;28;20483;-69
2022/01/26 10:49:14;;;;;;;117.00;44.97;;;2.80;99.90;;;;;;5065220;28;20469;-69
2022/01/26 10:54:36;;;;;;;125.03;43.87;;;2.80;99.90;;;;;;5062162;28;20550;-69
2022/01/26 10:57:05;;;;;;;110.23;40.00;;;2.70;99.90;;;;;;5064215;28;20473;-69
2022/01/26 10:59:35;;;;;;;95.70;41.00;;;2.80;99.90;;;;;;5063999;28;21189;-69
2022/01/26 11:02:03;;;;;;;86.33;34.00;;;2.80;99.90;;;;;;5091973;28;20743;-69
2022/01/26 11:04:32;;;;;;;101.63;41.53;;;2.70;99.90;;;;;;5072454;28;20657;-69
2022/01/26 11:06:59;;;;;;;116.50;41.50;;;2.70;99.90;;;;;;5064077;28;20555;-69
2022/01/26 11:09:28;;;;;;;92.43;38.40;;;2.80;99.90;;;;;;5063003;28;20473;-69
2022/01/26 11:12:02;;;;;;;93.00;38.27;;;2.90;99.90;;;;;;5065218;28;21123;-69
2022/01/26 11:14:42;;;;;;;99.77;41.43;;;2.90;99.90;;;;;;5062636;28;20481;-69
2022/01/26 11:17:10;;;;;;;102.23;40.43;;;2.90;99.90;;;;;;5064594;28;20481;-69
2022/01/26 11:19:45;;;;;;;95.77;41.03;;;3.00;99.90;;;;;;5063710;28;20472;-69
2022/01/26 11:22:14;;;;;;;103.90;43.30;;;3.10;99.90;;;;;;5063856;28;20550;-69
2022/01/26 11:24:45;;;;;;;101.23;42.10;;;3.10;99.90;;;;;;5064133;28;20457;-69
2022/01/26 11:27:12;;;;;;;88.73;38.83;;;3.10;99.90;;;;;;5064348;28;20460;-69
2022/01/26 11:29:44;;;;;;;87.50;39.17;;;3.10;99.90;;;;;;5064319;28;21033;-72
2022/01/26 11:32:17;;;;;;;86.90;38.37;;;3.20;99.90;;;;;;5064821;28;20504;-72
2022/01/26 11:34:44;;;;;;;88.30;36.97;;;3.20;99.90;;;;;;5063316;28;21181;-69
2022/01/26 11:37:14;;;;;;;110.30;40.77;;;3.10;99.90;;;;;;5064536;28;21014;-69
2022/01/26 11:45:16;;;;;;;99.53;40.03;;;3.00;99.90;;;;;;5064324;28;20552;-69
2022/01/26 11:47:46;;;;;;;97.40;41.90;;;2.90;99.90;;;;;;5061776;28;20515;-69
2022/01/26 11:50:15;;;;;;;93.07;42.60;;;3.10;99.90;;;;;;5065303;28;20559;-69
2022/01/26 11:52:45;;;;;;;88.10;38.23;;;3.20;99.90;;;;;;5063775;28;20461;-69
2022/01/26 11:55:28;;;;;;;76.93;37.63;;;3.20;99.90;;;;;;5062665;28;20481;-69
2022/01/26 11:58:05;;;;;;;102.67;42.27;;;3.30;99.90;;;;;;5065032;28;20990;-69
2022/01/26 12:00:43;;;;;;;82.20;39.37;;;3.30;99.90;;;;;;5062875;28;20812;-69
2022/01/26 12:03:26;;;;;;;93.90;43.57;;;3.30;99.90;;;;;;5063209;28;20481;-69
2022/01/26 12:05:56;;;;;;;87.17;40.83;;;3.30;99.90;;;;;;5061005;28;21015;-69
2022/01/26 12:08:37;;;;;;;92.53;42.80;;;3.40;99.90;;;;;;5063264;28;21069;-69
2022/01/26 12:11:08;;;;;;;100.30;42.20;;;3.40;99.90;;;;;;5062168;28;20488;-69
2022/01/26 12:13:37;;;;;;;91.40;42.73;;;3.50;99.90;;;;;;5061955;28;20489;-69
2022/01/26 12:16:11;;;;;;;86.57;42.00;;;3.40;99.90;;;;;;5064990;28;20453;-69
2022/01/26 12:18:44;;;;;;;108.33;43.53;;;3.40;99.90;;;;;;5077660;28;20589;-69
2022/01/26 12:32:33;;;;;;;85.60;41.87;;;3.30;99.90;;;;;;5067316;28;20485;-69
2022/01/26 12:35:12;;;;;;;83.67;42.37;;;3.40;99.90;;;;;;5067595;28;21290;-69
2022/01/26 12:37:50;;;;;;;114.43;45.63;;;3.40;99.90;;;;;;5065242;28;20519;-70
2022/01/26 12:43:10;;;;;;;83.30;41.37;;;3.30;99.90;;;;;;5063686;28;20511;-69
2022/01/26 12:45:37;;;;;;;85.90;39.07;;;3.40;99.90;;;;;;5064539;28;21125;-70
2022/01/26 12:48:09;;;;;;;92.63;41.10;;;3.20;99.90;;;;;;5067366;28;20461;-70
2022/01/26 12:50:39;;;;;;;104.20;43.00;;;3.20;99.90;;;;;;5067323;28;21043;-70
2022/01/26 12:53:07;;;;;;;79.00;39.23;;;3.20;99.90;;;;;;5066723;28;21218;-70
2022/01/26 12:55:37;;;;;;;86.03;43.47;;;3.20;99.90;;;;;;5067678;28;20450;-70
2022/01/26 12:58:05;;;;;;;111.83;44.10;;;3.20;99.90;;;;;;5067458;28;20501;-70
2022/01/26 13:00:44;;;;;;;100.83;41.23;;;3.30;99.90;;;;;;5067493;28;20468;-70
2022/01/26 13:03:19;;;;;;;88.33;40.00;;;3.30;99.90;;;;;;5067564;28;20648;-70
2022/01/26 13:05:47;;;;;;;89.67;42.50;;;3.30;99.90;;;;;;5066896;28;21025;-70
2022/01/26 13:08:14;;;;;;;100.17;42.70;;;3.40;99.90;;;;;;5067249;28;20991;-70
2022/01/26 13:10:41;;;;;;;99.67;43.10;;;3.50;99.90;;;;;;5066783;28;20457;-70
2022/01/26 13:13:19;;;;;;;111.33;43.40;;;3.50;99.90;;;;;;5066461;28;20486;-70
2022/01/26 13:15:55;;;;;;;97.67;43.57;;;3.60;99.90;;;;;;5066177;28;20831;-70
2022/01/26 13:21:38;;;;;;;88.60;41.97;;;3.60;99.90;;;;;;5064559;28;20824;-70
2022/01/26 13:24:16;;;;;;;94.43;43.73;;;3.60;99.90;;;;;;5063214;28;21155;-70
2022/01/26 13:27:00;;;;;;;89.97;41.67;;;3.60;99.90;;;;;;5065665;28;20604;-70
2022/01/26 13:29:38;;;;;;;89.17;43.07;;;3.50;99.90;;;;;;5063910;28;20457;-69
2022/01/26 13:32:34;;;;;;;84.87;40.50;;;3.50;99.90;;;;;;5061059;28;20473;-70
2022/01/26 13:35:34;;;;;;;88.77;43.53;;;3.50;99.90;;;;;;5063677;28;21147;-70
2022/01/26 13:38:27;;;;;;;100.47;43.50;;;3.50;99.90;;;;;;5063773;27;20504;-70
2022/01/26 13:41:04;;;;;;;101.00;44.57;;;3.50;99.90;;;;;;5065235;28;20833;-70
2022/01/26 13:44:07;;;;;;;92.10;44.30;;;3.50;99.90;;;;;;5066557;28;20937;-70
2022/01/26 13:49:32;;;;;;;93.20;43.77;;;3.40;99.90;;;;;;5065207;28;20461;-70
2022/01/26 13:52:18;;;;;;;87.53;42.00;;;3.50;99.90;;;;;;5066702;28;20465;-69
2022/01/26 13:54:58;;;;;;;96.63;44.97;;;3.50;99.90;;;;;;5066739;28;20811;-69
2022/01/26 13:57:45;;;;;;;94.07;43.20;;;3.50;99.90;;;;;;5066619;28;20469;-70
2022/01/26 14:00:16;;;;;;;94.30;42.23;;;3.40;99.90;;;;;;5065855;28;20482;-70
2022/01/26 14:02:43;;;;;;;91.63;42.40;;;3.40;99.90;;;;;;5066228;28;20496;-70
2022/01/26 14:05:12;;;;;;;90.20;41.20;;;3.40;99.90;;;;;;5077429;28;20745;-69
2022/01/26 14:07:40;;;;;;;88.40;43.73;;;3.30;99.90;;;;;;5101661;27;20466;-69
2022/01/26 14:10:09;;;;;;;89.30;43.83;;;3.40;99.90;;;;;;5081010;28;20968;-70
2022/01/26 14:12:40;;;;;;;83.60;42.23;;;3.40;99.90;;;;;;5064730;28;20866;-70
2022/01/26 14:15:09;;;;;;;94.93;42.03;;;3.40;99.90;;;;;;5064636;28;20973;-70
2022/01/26 14:17:52;;;;;;;80.77;39.90;;;3.50;99.90;;;;;;5063956;28;20557;-69
2022/01/26 14:20:41;;;;;;;85.90;40.83;;;3.40;99.90;;;;;;5064856;27;20484;-69
2022/01/26 14:23:19;;;;;;;91.50;41.23;;;3.40;99.90;;;;;;5058844;28;20457;-70
2022/01/26 14:25:48;;;;;;;79.33;38.50;;;3.40;99.90;;;;;;5064608;28;20461;-70
2022/01/26 14:28:18;;;;;;;84.00;42.27;;;3.50;99.90;;;;;;5064244;28;20619;-70
2022/01/26 14:30:54;;;;;;;92.23;44.20;;;3.50;99.90;;;;;;5065537;28;20557;-70